Weather at Ben Gurion International Airport

Public forecast

Using degrees Celsius for public forecast. Weather courtesy of forecast.io.

Current aviation weather report (METAR) for Ben Gurion International Airport

Report is more than 6 hours old.

2022/11/14 15:20 (retrieved 2 years ago)

LLBG 141520Z 35006KT 9999 FEW040 24/17 Q1015 NOSIG RMK SCT085

Aviation forecast (TAF) for Ben Gurion International Airport

Forecast is more than 12 hours old.

2023/02/22 18:08 (retrieved 1 year ago)

TAF LLBG 221706Z 2218/2318 VRB03KT 9999 SCT025 TEMPO 2222/2305 14004KT BKN020 BECMG 2307/2309 30010KT SCT035 TEMPO 2309/2315 BKN030 BECMG 2315/2317 VRB03KT TX18/2310Z TN09/2304Z